sensor_id;sensor_type;location;lat;lon;timestamp;P1;durP1;ratioP1;P2;durP2;ratioP2
43552;SDS011;29153;42.696;23.218;2022-11-20T00:59:50;3.27;;;0.78;;
43552;SDS011;29153;42.696;23.218;2022-11-20T01:02:18;7.58;;;0.98;;
43552;SDS011;29153;42.696;23.218;2022-11-20T01:04:45;4.03;;;0.80;;
43552;SDS011;29153;42.696;23.218;2022-11-20T01:07:13;6.78;;;1.02;;
43552;SDS011;29153;42.696;23.218;2022-11-20T01:09:41;5.15;;;0.65;;
43552;SDS011;29153;42.696;23.218;2022-11-20T01:12:08;3.98;;;0.82;;
43552;SDS011;29153;42.696;23.218;2022-11-20T01:14:35;3.92;;;1.15;;
43552;SDS011;29153;42.696;23.218;2022-11-20T01:17:03;3.62;;;1.35;;
43552;SDS011;29153;42.696;23.218;2022-11-20T01:19:30;5.12;;;1.27;;
43552;SDS011;29153;42.696;23.218;2022-11-20T01:22:00;2.77;;;0.70;;
43552;SDS011;29153;42.696;23.218;2022-11-20T01:24:30;4.20;;;1.15;;
43552;SDS011;29153;42.696;23.218;2022-11-20T01:26:58;6.60;;;0.57;;
43552;SDS011;29153;42.696;23.218;2022-11-20T01:29:25;8.03;;;0.90;;
43552;SDS011;29153;42.696;23.218;2022-11-20T01:31:53;3.77;;;0.60;;
43552;SDS011;29153;42.696;23.218;2022-11-20T01:34:22;5.03;;;0.93;;
43552;SDS011;29153;42.696;23.218;2022-11-20T01:36:51;5.65;;;0.72;;
43552;SDS011;29153;42.696;23.218;2022-11-20T01:39:20;3.52;;;0.80;;
43552;SDS011;29153;42.696;23.218;2022-11-20T01:41:52;3.33;;;0.62;;
43552;SDS011;29153;42.696;23.218;2022-11-20T01:44:51;3.50;;;0.65;;
43552;SDS011;29153;42.696;23.218;2022-11-20T01:50:15;2.52;;;0.70;;
43552;SDS011;29153;42.696;23.218;2022-11-20T01:52:46;3.75;;;0.78;;
43552;SDS011;29153;42.696;23.218;2022-11-20T01:55:21;4.03;;;0.68;;
43552;SDS011;29153;42.696;23.218;2022-11-20T01:57:50;1.60;;;0.50;;
43552;SDS011;29153;42.696;23.218;2022-11-20T02:00:18;6.28;;;0.70;;
43552;SDS011;29153;42.696;23.218;2022-11-20T02:24:03;4.05;;;0.80;;
43552;SDS011;29153;42.696;23.218;2022-11-20T02:29:12;1.98;;;0.40;;
43552;SDS011;29153;42.696;23.218;2022-11-20T02:31:42;3.87;;;0.90;;
43552;SDS011;29153;42.696;23.218;2022-11-20T02:34:11;4.80;;;1.00;;
43552;SDS011;29153;42.696;23.218;2022-11-20T02:36:39;3.70;;;0.90;;
43552;SDS011;29153;42.696;23.218;2022-11-20T02:39:08;4.75;;;1.22;;
43552;SDS011;29153;42.696;23.218;2022-11-20T02:41:37;5.87;;;1.12;;
43552;SDS011;29153;42.696;23.218;2022-11-20T02:44:05;4.17;;;0.90;;
43552;SDS011;29153;42.696;23.218;2022-11-20T02:46:33;3.80;;;0.80;;
43552;SDS011;29153;42.696;23.218;2022-11-20T02:49:06;5.37;;;1.30;;
43552;SDS011;29153;42.696;23.218;2022-11-20T02:51:30;6.55;;;0.85;;
43552;SDS011;29153;42.696;23.218;2022-11-20T02:53:58;5.70;;;1.10;;
43552;SDS011;29153;42.696;23.218;2022-11-20T02:56:26;4.42;;;1.07;;
43552;SDS011;29153;42.696;23.218;2022-11-20T02:58:54;3.60;;;0.90;;
43552;SDS011;29153;42.696;23.218;2022-11-20T03:01:21;3.42;;;0.95;;
43552;SDS011;29153;42.696;23.218;2022-11-20T03:03:49;4.50;;;0.82;;
43552;SDS011;29153;42.696;23.218;2022-11-20T03:06:17;3.58;;;1.20;;
43552;SDS011;29153;42.696;23.218;2022-11-20T03:08:45;7.28;;;0.98;;
43552;SDS011;29153;42.696;23.218;2022-11-20T03:11:12;6.40;;;1.50;;
43552;SDS011;29153;42.696;23.218;2022-11-20T03:13:40;4.10;;;1.20;;
43552;SDS011;29153;42.696;23.218;2022-11-20T03:16:14;5.30;;;1.37;;
43552;SDS011;29153;42.696;23.218;2022-11-20T03:18:44;5.15;;;1.35;;
43552;SDS011;29153;42.696;23.218;2022-11-20T03:21:12;7.37;;;1.10;;
43552;SDS011;29153;42.696;23.218;2022-11-20T03:23:41;4.42;;;0.90;;
43552;SDS011;29153;42.696;23.218;2022-11-20T03:26:10;5.95;;;1.12;;
43552;SDS011;29153;42.696;23.218;2022-11-20T03:28:39;6.08;;;1.57;;
43552;SDS011;29153;42.696;23.218;2022-11-20T03:31:10;4.55;;;1.45;;
43552;SDS011;29153;42.696;23.218;2022-11-20T03:33:39;4.83;;;1.15;;
43552;SDS011;29153;42.696;23.218;2022-11-20T03:36:08;3.25;;;1.20;;
43552;SDS011;29153;42.696;23.218;2022-11-20T03:38:38;3.50;;;0.95;;
43552;SDS011;29153;42.696;23.218;2022-11-20T03:41:12;7.12;;;1.37;;
43552;SDS011;29153;42.696;23.218;2022-11-20T03:43:37;4.67;;;1.10;;
43552;SDS011;29153;42.696;23.218;2022-11-20T03:46:05;5.08;;;0.80;;
43552;SDS011;29153;42.696;23.218;2022-11-20T03:48:33;4.95;;;1.00;;
43552;SDS011;29153;42.696;23.218;2022-11-20T03:51:07;4.65;;;1.00;;
43552;SDS011;29153;42.696;23.218;2022-11-20T03:53:36;3.50;;;1.07;;
43552;SDS011;29153;42.696;23.218;2022-11-20T03:56:05;5.22;;;1.00;;
43552;SDS011;29153;42.696;23.218;2022-11-20T03:58:40;5.53;;;1.40;;
43552;SDS011;29153;42.696;23.218;2022-11-20T04:01:11;7.53;;;1.27;;
43552;SDS011;29153;42.696;23.218;2022-11-20T04:03:41;4.75;;;1.22;;
43552;SDS011;29153;42.696;23.218;2022-11-20T04:06:11;4.40;;;1.07;;
43552;SDS011;29153;42.696;23.218;2022-11-20T04:08:40;5.87;;;1.72;;
43552;SDS011;29153;42.696;23.218;2022-11-20T04:11:11;4.83;;;1.85;;
43552;SDS011;29153;42.696;23.218;2022-11-20T04:13:40;6.95;;;1.10;;
43552;SDS011;29153;42.696;23.218;2022-11-20T04:16:09;5.90;;;1.20;;
43552;SDS011;29153;42.696;23.218;2022-11-20T04:18:37;5.55;;;1.22;;
43552;SDS011;29153;42.696;23.218;2022-11-20T04:21:04;5.42;;;1.10;;
43552;SDS011;29153;42.696;23.218;2022-11-20T04:23:33;4.78;;;1.17;;
43552;SDS011;29153;42.696;23.218;2022-11-20T04:26:02;5.25;;;0.90;;
43552;SDS011;29153;42.696;23.218;2022-11-20T04:28:37;4.42;;;0.78;;
43552;SDS011;29153;42.696;23.218;2022-11-20T04:31:09;2.02;;;0.70;;
43552;SDS011;29153;42.696;23.218;2022-11-20T04:33:41;2.52;;;1.05;;
43552;SDS011;29153;42.696;23.218;2022-11-20T04:36:16;2.72;;;0.70;;
43552;SDS011;29153;42.696;23.218;2022-11-20T04:38:56;3.10;;;0.85;;
43552;SDS011;29153;42.696;23.218;2022-11-20T04:41:21;2.45;;;1.27;;
43552;SDS011;29153;42.696;23.218;2022-11-20T04:43:51;3.67;;;0.80;;
43552;SDS011;29153;42.696;23.218;2022-11-20T04:46:22;2.65;;;1.17;;
43552;SDS011;29153;42.696;23.218;2022-11-20T04:48:49;3.67;;;0.75;;
43552;SDS011;29153;42.696;23.218;2022-11-20T04:51:17;4.00;;;0.98;;
43552;SDS011;29153;42.696;23.218;2022-11-20T04:53:44;4.47;;;0.90;;
43552;SDS011;29153;42.696;23.218;2022-11-20T04:56:12;4.45;;;0.93;;
43552;SDS011;29153;42.696;23.218;2022-11-20T04:58:40;4.35;;;0.93;;
43552;SDS011;29153;42.696;23.218;2022-11-20T05:03:42;3.05;;;0.80;;
43552;SDS011;29153;42.696;23.218;2022-11-20T05:08:38;4.20;;;0.90;;
43552;SDS011;29153;42.696;23.218;2022-11-20T05:11:07;4.00;;;0.85;;
43552;SDS011;29153;42.696;23.218;2022-11-20T05:13:39;2.87;;;0.82;;
43552;SDS011;29153;42.696;23.218;2022-11-20T05:16:11;3.05;;;0.95;;
43552;SDS011;29153;42.696;23.218;2022-11-20T05:18:40;3.95;;;0.95;;
43552;SDS011;29153;42.696;23.218;2022-11-20T05:21:08;3.40;;;0.72;;
43552;SDS011;29153;42.696;23.218;2022-11-20T05:23:36;6.62;;;1.20;;
43552;SDS011;29153;42.696;23.218;2022-11-20T05:28:32;3.65;;;1.12;;
43552;SDS011;29153;42.696;23.218;2022-11-20T05:33:31;3.42;;;0.90;;
43552;SDS011;29153;42.696;23.218;2022-11-20T05:35:59;3.25;;;0.85;;
43552;SDS011;29153;42.696;23.218;2022-11-20T05:38:28;4.08;;;1.20;;
43552;SDS011;29153;42.696;23.218;2022-11-20T05:41:07;4.50;;;0.90;;
43552;SDS011;29153;42.696;23.218;2022-11-20T05:43:42;3.67;;;1.15;;
43552;SDS011;29153;42.696;23.218;2022-11-20T05:46:12;3.27;;;1.02;;
43552;SDS011;29153;42.696;23.218;2022-11-20T05:48:42;4.80;;;1.25;;
43552;SDS011;29153;42.696;23.218;2022-11-20T05:51:12;3.85;;;1.00;;
43552;SDS011;29153;42.696;23.218;2022-11-20T05:53:41;3.45;;;0.90;;
43552;SDS011;29153;42.696;23.218;2022-11-20T05:56:10;1.77;;;0.78;;
43552;SDS011;29153;42.696;23.218;2022-11-20T05:58:39;3.25;;;1.00;;
43552;SDS011;29153;42.696;23.218;2022-11-20T06:01:17;3.20;;;1.02;;
43552;SDS011;29153;42.696;23.218;2022-11-20T06:03:47;2.67;;;1.07;;
43552;SDS011;29153;42.696;23.218;2022-11-20T06:06:16;4.30;;;0.85;;
43552;SDS011;29153;42.696;23.218;2022-11-20T06:08:44;5.80;;;1.10;;
43552;SDS011;29153;42.696;23.218;2022-11-20T06:11:12;5.55;;;1.07;;
43552;SDS011;29153;42.696;23.218;2022-11-20T06:13:41;2.65;;;1.07;;
43552;SDS011;29153;42.696;23.218;2022-11-20T06:16:09;3.80;;;0.90;;
43552;SDS011;29153;42.696;23.218;2022-11-20T06:18:38;2.92;;;1.07;;
43552;SDS011;29153;42.696;23.218;2022-11-20T06:21:07;1.42;;;0.75;;
43552;SDS011;29153;42.696;23.218;2022-11-20T06:23:36;3.37;;;0.93;;
43552;SDS011;29153;42.696;23.218;2022-11-20T06:26:04;2.52;;;0.80;;
43552;SDS011;29153;42.696;23.218;2022-11-20T06:28:34;2.95;;;0.78;;
43552;SDS011;29153;42.696;23.218;2022-11-20T06:31:02;2.27;;;0.80;;
43552;SDS011;29153;42.696;23.218;2022-11-20T06:33:30;2.67;;;0.80;;
43552;SDS011;29153;42.696;23.218;2022-11-20T06:35:58;3.35;;;0.60;;
43552;SDS011;29153;42.696;23.218;2022-11-20T06:38:27;5.12;;;1.52;;
43552;SDS011;29153;42.696;23.218;2022-11-20T06:40:55;1.82;;;0.42;;
43552;SDS011;29153;42.696;23.218;2022-11-20T06:43:23;2.20;;;0.72;;
43552;SDS011;29153;42.696;23.218;2022-11-20T06:45:52;1.45;;;0.60;;
43552;SDS011;29153;42.696;23.218;2022-11-20T06:48:20;2.10;;;0.80;;
43552;SDS011;29153;42.696;23.218;2022-11-20T06:53:15;6.17;;;1.65;;
43552;SDS011;29153;42.696;23.218;2022-11-20T06:55:43;3.12;;;0.50;;
43552;SDS011;29153;42.696;23.218;2022-11-20T06:58:13;3.95;;;1.02;;
43552;SDS011;29153;42.696;23.218;2022-11-20T07:00:41;2.45;;;0.75;;
43552;SDS011;29153;42.696;23.218;2022-11-20T07:03:10;1.52;;;0.70;;
43552;SDS011;29153;42.696;23.218;2022-11-20T07:05:38;6.30;;;0.80;;
43552;SDS011;29153;42.696;23.218;2022-11-20T07:08:06;4.08;;;0.90;;
43552;SDS011;29153;42.696;23.218;2022-11-20T07:10:34;3.90;;;1.00;;
43552;SDS011;29153;42.696;23.218;2022-11-20T07:13:02;3.45;;;0.70;;
43552;SDS011;29153;42.696;23.218;2022-11-20T07:15:30;3.77;;;1.15;;
43552;SDS011;29153;42.696;23.218;2022-11-20T07:18:00;3.35;;;0.98;;
43552;SDS011;29153;42.696;23.218;2022-11-20T07:20:28;3.75;;;0.60;;
43552;SDS011;29153;42.696;23.218;2022-11-20T07:22:56;2.60;;;0.85;;
43552;SDS011;29153;42.696;23.218;2022-11-20T07:25:24;3.22;;;0.95;;
43552;SDS011;29153;42.696;23.218;2022-11-20T07:27:57;6.08;;;1.17;;
43552;SDS011;29153;42.696;23.218;2022-11-20T07:32:50;3.27;;;0.93;;
43552;SDS011;29153;42.696;23.218;2022-11-20T07:35:19;6.30;;;0.60;;
43552;SDS011;29153;42.696;23.218;2022-11-20T07:37:47;4.42;;;0.60;;
43552;SDS011;29153;42.696;23.218;2022-11-20T07:40:15;3.65;;;0.70;;
43552;SDS011;29153;42.696;23.218;2022-11-20T07:42:50;4.30;;;0.70;;
43552;SDS011;29153;42.696;23.218;2022-11-20T07:45:19;6.00;;;1.00;;
43552;SDS011;29153;42.696;23.218;2022-11-20T07:47:48;2.90;;;0.50;;
43552;SDS011;29153;42.696;23.218;2022-11-20T07:50:16;2.77;;;0.57;;
43552;SDS011;29153;42.696;23.218;2022-11-20T07:55:11;3.17;;;0.60;;
43552;SDS011;29153;42.696;23.218;2022-11-20T07:57:39;1.57;;;0.30;;
43552;SDS011;29153;42.696;23.218;2022-11-20T08:00:07;6.25;;;0.80;;
43552;SDS011;29153;42.696;23.218;2022-11-20T08:02:37;3.37;;;0.65;;
43552;SDS011;29153;42.696;23.218;2022-11-20T08:05:06;7.65;;;0.70;;
43552;SDS011;29153;42.696;23.218;2022-11-20T08:07:40;4.53;;;0.55;;
43552;SDS011;29153;42.696;23.218;2022-11-20T08:10:11;4.40;;;0.62;;
43552;SDS011;29153;42.696;23.218;2022-11-20T08:12:49;3.40;;;0.75;;
43552;SDS011;29153;42.696;23.218;2022-11-20T08:15:31;5.15;;;0.78;;
43552;SDS011;29153;42.696;23.218;2022-11-20T08:18:02;5.58;;;1.45;;
43552;SDS011;29153;42.696;23.218;2022-11-20T08:20:32;3.47;;;0.70;;
43552;SDS011;29153;42.696;23.218;2022-11-20T08:23:00;4.30;;;0.60;;
43552;SDS011;29153;42.696;23.218;2022-11-20T08:25:29;3.60;;;0.80;;
43552;SDS011;29153;42.696;23.218;2022-11-20T08:27:58;5.72;;;1.00;;
43552;SDS011;29153;42.696;23.218;2022-11-20T08:30:26;4.00;;;0.88;;
43552;SDS011;29153;42.696;23.218;2022-11-20T08:32:59;6.97;;;0.90;;
43552;SDS011;29153;42.696;23.218;2022-11-20T08:35:33;4.03;;;1.07;;
43552;SDS011;29153;42.696;23.218;2022-11-20T08:38:02;3.55;;;0.82;;
43552;SDS011;29153;42.696;23.218;2022-11-20T08:40:33;6.45;;;1.17;;
43552;SDS011;29153;42.696;23.218;2022-11-20T08:43:00;4.40;;;1.20;;
43552;SDS011;29153;42.696;23.218;2022-11-20T08:45:28;7.15;;;1.70;;
43552;SDS011;29153;42.696;23.218;2022-11-20T08:47:59;4.85;;;1.25;;
43552;SDS011;29153;42.696;23.218;2022-11-20T08:50:27;4.33;;;1.57;;
43552;SDS011;29153;42.696;23.218;2022-11-20T08:53:01;5.80;;;1.70;;
43552;SDS011;29153;42.696;23.218;2022-11-20T08:55:32;9.90;;;1.90;;
43552;SDS011;29153;42.696;23.218;2022-11-20T08:58:03;13.05;;;4.80;;
43552;SDS011;29153;42.696;23.218;2022-11-20T09:00:31;16.07;;;6.28;;
43552;SDS011;29153;42.696;23.218;2022-11-20T09:03:00;15.00;;;5.37;;
43552;SDS011;29153;42.696;23.218;2022-11-20T09:07:58;14.00;;;6.00;;
43552;SDS011;29153;42.696;23.218;2022-11-20T09:10:26;33.73;;;12.73;;
43552;SDS011;29153;42.696;23.218;2022-11-20T09:12:54;15.50;;;7.08;;
43552;SDS011;29153;42.696;23.218;2022-11-20T09:15:22;16.65;;;7.12;;
43552;SDS011;29153;42.696;23.218;2022-11-20T09:17:55;10.40;;;2.77;;
43552;SDS011;29153;42.696;23.218;2022-11-20T09:20:19;7.30;;;3.33;;
43552;SDS011;29153;42.696;23.218;2022-11-20T09:22:47;8.30;;;2.10;;
43552;SDS011;29153;42.696;23.218;2022-11-20T09:25:15;5.90;;;2.20;;
43552;SDS011;29153;42.696;23.218;2022-11-20T09:27:43;4.28;;;1.77;;
43552;SDS011;29153;42.696;23.218;2022-11-20T09:30:12;5.12;;;1.72;;
43552;SDS011;29153;42.696;23.218;2022-11-20T09:32:41;5.45;;;2.05;;
43552;SDS011;29153;42.696;23.218;2022-11-20T09:35:09;3.37;;;1.40;;
43552;SDS011;29153;42.696;23.218;2022-11-20T09:37:37;2.62;;;0.65;;
43552;SDS011;29153;42.696;23.218;2022-11-20T09:40:05;3.27;;;0.93;;
43552;SDS011;29153;42.696;23.218;2022-11-20T09:42:44;3.55;;;1.00;;
43552;SDS011;29153;42.696;23.218;2022-11-20T09:45:27;2.70;;;0.85;;
43552;SDS011;29153;42.696;23.218;2022-11-20T09:53:35;6.70;;;1.40;;
43552;SDS011;29153;42.696;23.218;2022-11-20T09:56:06;4.42;;;1.12;;
43552;SDS011;29153;42.696;23.218;2022-11-20T09:58:40;7.17;;;1.30;;
43552;SDS011;29153;42.696;23.218;2022-11-20T10:01:23;4.40;;;1.20;;
43552;SDS011;29153;42.696;23.218;2022-11-20T10:03:54;8.98;;;1.72;;
43552;SDS011;29153;42.696;23.218;2022-11-20T10:06:47;6.08;;;1.35;;
43552;SDS011;29153;42.696;23.218;2022-11-20T10:09:33;4.58;;;1.47;;
43552;SDS011;29153;42.696;23.218;2022-11-20T10:14:38;5.45;;;1.32;;
43552;SDS011;29153;42.696;23.218;2022-11-20T10:20:08;6.80;;;1.75;;
43552;SDS011;29153;42.696;23.218;2022-11-20T10:22:53;9.70;;;3.00;;
43552;SDS011;29153;42.696;23.218;2022-11-20T10:28:17;10.75;;;2.72;;
43552;SDS011;29153;42.696;23.218;2022-11-20T10:31:02;7.35;;;1.98;;
43552;SDS011;29153;42.696;23.218;2022-11-20T10:33:32;7.50;;;2.80;;
43552;SDS011;29153;42.696;23.218;2022-11-20T10:39:05;10.00;;;2.37;;
43552;SDS011;29153;42.696;23.218;2022-11-20T10:41:34;13.15;;;3.30;;
43552;SDS011;29153;42.696;23.218;2022-11-20T10:44:33;5.65;;;1.62;;
43552;SDS011;29153;42.696;23.218;2022-11-20T10:46:46;11.20;;;1.80;;
43552;SDS011;29153;42.696;23.218;2022-11-20T10:49:15;2.45;;;0.70;;
43552;SDS011;29153;42.696;23.218;2022-11-20T10:54:32;3.15;;;0.70;;
43552;SDS011;29153;42.696;23.218;2022-11-20T10:57:14;5.37;;;0.62;;
43552;SDS011;29153;42.696;23.218;2022-11-20T11:02:34;6.67;;;2.25;;
43552;SDS011;29153;42.696;23.218;2022-11-20T11:05:06;4.72;;;1.37;;
43552;SDS011;29153;42.696;23.218;2022-11-20T11:07:34;5.87;;;0.50;;
43552;SDS011;29153;42.696;23.218;2022-11-20T11:10:11;1.67;;;0.35;;
43552;SDS011;29153;42.696;23.218;2022-11-20T11:12:42;2.60;;;0.42;;
43552;SDS011;29153;42.696;23.218;2022-11-20T11:15:59;2.77;;;0.65;;
43552;SDS011;29153;42.696;23.218;2022-11-20T11:17:53;2.00;;;0.55;;
43552;SDS011;29153;42.696;23.218;2022-11-20T11:20:22;3.33;;;0.72;;
43552;SDS011;29153;42.696;23.218;2022-11-20T11:22:52;4.62;;;0.60;;
43552;SDS011;29153;42.696;23.218;2022-11-20T11:25:27;2.02;;;0.42;;
43552;SDS011;29153;42.696;23.218;2022-11-20T11:27:52;1.30;;;0.30;;
43552;SDS011;29153;42.696;23.218;2022-11-20T11:30:22;1.90;;;0.40;;
43552;SDS011;29153;42.696;23.218;2022-11-20T11:33:02;2.27;;;0.72;;
43552;SDS011;29153;42.696;23.218;2022-11-20T11:35:32;2.17;;;0.50;;
43552;SDS011;29153;42.696;23.218;2022-11-20T11:38:06;1.62;;;0.40;;
43552;SDS011;29153;42.696;23.218;2022-11-20T11:40:35;2.27;;;0.50;;
43552;SDS011;29153;42.696;23.218;2022-11-20T11:43:05;1.27;;;0.25;;
43552;SDS011;29153;42.696;23.218;2022-11-20T11:45:36;5.67;;;0.30;;
43552;SDS011;29153;42.696;23.218;2022-11-20T11:48:04;3.87;;;0.45;;
43552;SDS011;29153;42.696;23.218;2022-11-20T11:50:34;2.05;;;0.30;;
43552;SDS011;29153;42.696;23.218;2022-11-20T11:53:06;3.77;;;0.35;;
43552;SDS011;29153;42.696;23.218;2022-11-20T11:58:14;2.70;;;0.30;;
43552;SDS011;29153;42.696;23.218;2022-11-20T12:00:47;4.22;;;1.30;;
43552;SDS011;29153;42.696;23.218;2022-11-20T12:03:22;9.48;;;2.85;;
43552;SDS011;29153;42.696;23.218;2022-11-20T12:06:11;6.30;;;0.80;;
43552;SDS011;29153;42.696;23.218;2022-11-20T12:08:50;5.87;;;0.70;;
43552;SDS011;29153;42.696;23.218;2022-11-20T12:11:45;4.53;;;0.70;;
43552;SDS011;29153;42.696;23.218;2022-11-20T12:14:33;2.67;;;0.80;;
43552;SDS011;29153;42.696;23.218;2022-11-20T12:17:03;2.55;;;0.40;;
43552;SDS011;29153;42.696;23.218;2022-11-20T12:19:31;3.42;;;0.65;;
43552;SDS011;29153;42.696;23.218;2022-11-20T12:27:47;3.58;;;0.60;;
43552;SDS011;29153;42.696;23.218;2022-11-20T12:30:32;6.78;;;1.25;;
43552;SDS011;29153;42.696;23.218;2022-11-20T12:33:17;7.03;;;1.82;;
43552;SDS011;29153;42.696;23.218;2022-11-20T12:38:58;4.22;;;1.27;;
43552;SDS011;29153;42.696;23.218;2022-11-20T12:44:36;6.40;;;1.37;;
43552;SDS011;29153;42.696;23.218;2022-11-20T12:50:02;1.70;;;0.47;;
43552;SDS011;29153;42.696;23.218;2022-11-20T12:55:12;5.42;;;1.42;;
43552;SDS011;29153;42.696;23.218;2022-11-20T13:00:24;1.35;;;0.20;;
43552;SDS011;29153;42.696;23.218;2022-11-20T13:08:19;4.80;;;0.50;;
43552;SDS011;29153;42.696;23.218;2022-11-20T13:13:43;5.72;;;0.65;;
43552;SDS011;29153;42.696;23.218;2022-11-20T13:19:05;4.05;;;0.70;;
43552;SDS011;29153;42.696;23.218;2022-11-20T13:21:42;6.53;;;1.02;;
43552;SDS011;29153;42.696;23.218;2022-11-20T13:29:41;5.87;;;1.10;;
43552;SDS011;29153;42.696;23.218;2022-11-20T13:32:15;12.43;;;1.60;;
43552;SDS011;29153;42.696;23.218;2022-11-20T13:34:51;9.20;;;1.50;;
43552;SDS011;29153;42.696;23.218;2022-11-20T13:42:40;6.80;;;2.27;;
43552;SDS011;29153;42.696;23.218;2022-11-20T13:45:25;6.15;;;1.98;;
43552;SDS011;29153;42.696;23.218;2022-11-20T13:47:54;7.95;;;3.35;;
43552;SDS011;29153;42.696;23.218;2022-11-20T13:55:47;8.75;;;3.08;;
43552;SDS011;29153;42.696;23.218;2022-11-20T13:58:24;5.90;;;1.85;;
43552;SDS011;29153;42.696;23.218;2022-11-20T14:01:14;5.95;;;2.65;;
43552;SDS011;29153;42.696;23.218;2022-11-20T14:03:53;7.03;;;2.62;;
43552;SDS011;29153;42.696;23.218;2022-11-20T14:06:40;5.10;;;1.67;;
43552;SDS011;29153;42.696;23.218;2022-11-20T14:09:00;6.72;;;2.00;;
43552;SDS011;29153;42.696;23.218;2022-11-20T14:11:29;3.87;;;1.57;;
43552;SDS011;29153;42.696;23.218;2022-11-20T14:14:01;2.72;;;0.70;;
43552;SDS011;29153;42.696;23.218;2022-11-20T14:16:49;11.38;;;5.42;;
43552;SDS011;29153;42.696;23.218;2022-11-20T14:21:52;4.78;;;1.32;;
43552;SDS011;29153;42.696;23.218;2022-11-20T14:24:22;5.65;;;2.50;;
43552;SDS011;29153;42.696;23.218;2022-11-20T14:26:51;3.58;;;0.70;;
43552;SDS011;29153;42.696;23.218;2022-11-20T14:29:21;4.45;;;1.00;;
43552;SDS011;29153;42.696;23.218;2022-11-20T14:31:53;4.28;;;1.40;;
43552;SDS011;29153;42.696;23.218;2022-11-20T14:34:27;8.25;;;3.35;;
43552;SDS011;29153;42.696;23.218;2022-11-20T14:36:53;7.12;;;3.17;;
43552;SDS011;29153;42.696;23.218;2022-11-20T14:39:30;4.90;;;1.72;;
43552;SDS011;29153;42.696;23.218;2022-11-20T14:42:00;4.25;;;2.27;;
43552;SDS011;29153;42.696;23.218;2022-11-20T14:44:31;4.30;;;1.55;;
43552;SDS011;29153;42.696;23.218;2022-11-20T14:47:00;2.83;;;0.93;;
43552;SDS011;29153;42.696;23.218;2022-11-20T14:49:30;3.75;;;1.70;;
43552;SDS011;29153;42.696;23.218;2022-11-20T14:52:19;3.00;;;1.30;;
43552;SDS011;29153;42.696;23.218;2022-11-20T14:54:45;4.35;;;1.32;;
43552;SDS011;29153;42.696;23.218;2022-11-20T14:57:31;2.60;;;0.80;;
43552;SDS011;29153;42.696;23.218;2022-11-20T15:02:43;8.90;;;3.98;;
43552;SDS011;29153;42.696;23.218;2022-11-20T15:05:12;8.20;;;3.90;;
43552;SDS011;29153;42.696;23.218;2022-11-20T15:07:41;8.83;;;2.62;;
43552;SDS011;29153;42.696;23.218;2022-11-20T15:12:54;3.83;;;1.85;;
43552;SDS011;29153;42.696;23.218;2022-11-20T15:15:45;5.85;;;2.85;;
43552;SDS011;29153;42.696;23.218;2022-11-20T15:18:15;4.33;;;1.30;;
43552;SDS011;29153;42.696;23.218;2022-11-20T15:20:45;3.60;;;0.80;;
43552;SDS011;29153;42.696;23.218;2022-11-20T15:23:15;3.60;;;1.30;;
43552;SDS011;29153;42.696;23.218;2022-11-20T15:25:46;4.45;;;1.22;;
43552;SDS011;29153;42.696;23.218;2022-11-20T15:28:19;3.08;;;0.93;;
43552;SDS011;29153;42.696;23.218;2022-11-20T15:30:48;2.95;;;0.80;;
43552;SDS011;29153;42.696;23.218;2022-11-20T15:35:43;6.35;;;1.70;;
43552;SDS011;29153;42.696;23.218;2022-11-20T15:38:11;5.05;;;2.08;;
43552;SDS011;29153;42.696;23.218;2022-11-20T15:40:39;11.15;;;2.37;;
43552;SDS011;29153;42.696;23.218;2022-11-20T15:43:06;7.40;;;2.20;;
43552;SDS011;29153;42.696;23.218;2022-11-20T15:48:14;9.43;;;2.50;;
43552;SDS011;29153;42.696;23.218;2022-11-20T15:51:01;4.12;;;1.50;;
43552;SDS011;29153;42.696;23.218;2022-11-20T15:53:30;7.62;;;1.90;;
43552;SDS011;29153;42.696;23.218;2022-11-20T15:55:57;6.62;;;2.60;;
43552;SDS011;29153;42.696;23.218;2022-11-20T15:58:25;4.42;;;0.72;;
43552;SDS011;29153;42.696;23.218;2022-11-20T16:00:52;5.85;;;1.32;;
43552;SDS011;29153;42.696;23.218;2022-11-20T16:03:20;8.23;;;2.80;;
43552;SDS011;29153;42.696;23.218;2022-11-20T16:05:48;6.47;;;2.05;;
43552;SDS011;29153;42.696;23.218;2022-11-20T16:08:16;3.35;;;1.35;;
43552;SDS011;29153;42.696;23.218;2022-11-20T16:10:43;4.00;;;0.68;;
43552;SDS011;29153;42.696;23.218;2022-11-20T16:13:12;4.17;;;0.70;;
43552;SDS011;29153;42.696;23.218;2022-11-20T16:16:01;6.87;;;2.58;;
43552;SDS011;29153;42.696;23.218;2022-11-20T16:18:34;7.37;;;3.45;;
43552;SDS011;29153;42.696;23.218;2022-11-20T16:21:02;4.53;;;2.33;;
43552;SDS011;29153;42.696;23.218;2022-11-20T16:23:31;7.70;;;3.05;;
43552;SDS011;29153;42.696;23.218;2022-11-20T16:25:58;7.70;;;3.83;;
43552;SDS011;29153;42.696;23.218;2022-11-20T16:28:27;13.50;;;5.72;;
43552;SDS011;29153;42.696;23.218;2022-11-20T16:30:55;13.20;;;5.42;;
43552;SDS011;29153;42.696;23.218;2022-11-20T16:33:22;15.43;;;5.80;;
43552;SDS011;29153;42.696;23.218;2022-11-20T16:35:50;18.52;;;8.68;;
43552;SDS011;29153;42.696;23.218;2022-11-20T16:38:18;21.62;;;9.33;;
43552;SDS011;29153;42.696;23.218;2022-11-20T16:40:45;25.62;;;12.58;;
43552;SDS011;29153;42.696;23.218;2022-11-20T16:43:13;31.80;;;16.25;;
43552;SDS011;29153;42.696;23.218;2022-11-20T16:45:41;31.52;;;16.00;;
43552;SDS011;29153;42.696;23.218;2022-11-20T16:48:15;24.75;;;12.50;;
43552;SDS011;29153;42.696;23.218;2022-11-20T16:50:52;29.02;;;14.25;;
43552;SDS011;29153;42.696;23.218;2022-11-20T16:53:17;19.87;;;11.38;;
43552;SDS011;29153;42.696;23.218;2022-11-20T16:55:46;25.25;;;13.35;;
43552;SDS011;29153;42.696;23.218;2022-11-20T16:58:14;22.07;;;10.95;;
43552;SDS011;29153;42.696;23.218;2022-11-20T17:00:42;15.75;;;8.45;;
43552;SDS011;29153;42.696;23.218;2022-11-20T17:03:10;10.45;;;5.08;;
43552;SDS011;29153;42.696;23.218;2022-11-20T17:05:38;7.37;;;3.52;;
43552;SDS011;29153;42.696;23.218;2022-11-20T17:08:05;15.90;;;6.72;;
43552;SDS011;29153;42.696;23.218;2022-11-20T17:10:33;11.85;;;5.15;;
43552;SDS011;29153;42.696;23.218;2022-11-20T17:13:00;9.53;;;4.85;;
43552;SDS011;29153;42.696;23.218;2022-11-20T17:15:28;9.75;;;5.92;;
43552;SDS011;29153;42.696;23.218;2022-11-20T17:17:56;11.12;;;5.42;;
43552;SDS011;29153;42.696;23.218;2022-11-20T17:20:24;10.15;;;5.03;;
43552;SDS011;29153;42.696;23.218;2022-11-20T17:22:51;10.55;;;4.47;;
43552;SDS011;29153;42.696;23.218;2022-11-20T17:25:19;8.90;;;4.90;;
43552;SDS011;29153;42.696;23.218;2022-11-20T17:27:46;9.30;;;4.17;;
43552;SDS011;29153;42.696;23.218;2022-11-20T17:30:14;10.58;;;4.37;;
43552;SDS011;29153;42.696;23.218;2022-11-20T17:32:41;11.68;;;5.25;;
43552;SDS011;29153;42.696;23.218;2022-11-20T17:35:10;12.25;;;5.03;;
43552;SDS011;29153;42.696;23.218;2022-11-20T17:37:38;11.48;;;6.17;;
43552;SDS011;29153;42.696;23.218;2022-11-20T17:40:05;10.25;;;6.12;;
43552;SDS011;29153;42.696;23.218;2022-11-20T17:42:33;14.05;;;7.00;;
43552;SDS011;29153;42.696;23.218;2022-11-20T17:45:01;15.90;;;7.83;;
43552;SDS011;29153;42.696;23.218;2022-11-20T17:49:56;18.50;;;8.75;;
43552;SDS011;29153;42.696;23.218;2022-11-20T17:52:24;18.95;;;9.43;;
43552;SDS011;29153;42.696;23.218;2022-11-20T17:54:52;17.55;;;10.23;;
43552;SDS011;29153;42.696;23.218;2022-11-20T17:57:22;18.57;;;9.40;;
43552;SDS011;29153;42.696;23.218;2022-11-20T18:00:08;18.00;;;10.32;;
43552;SDS011;29153;42.696;23.218;2022-11-20T18:02:39;15.75;;;9.68;;
43552;SDS011;29153;42.696;23.218;2022-11-20T18:05:08;17.73;;;10.63;;
43552;SDS011;29153;42.696;23.218;2022-11-20T18:07:35;16.20;;;8.50;;